Time;durP1;ratioP1;P1;durP2;ratioP2;P2;SDS_P1;SDS_P2;PMS_P1;PMS_P2;Temp;Humidity;BMP_temperature;BMP_pressure;BME280_temperature;BME280_humidity;BME280_pressure;Samples;Min_cycle;Max_cycle;Signal;HPM_P1;HPM_P2
2021/06/04 00:04:57;;;;;;;1999.90;999.90;;;;;;;20.65;46.74;101700.84;15530297;28;20403;-61
2021/06/04 00:12:28;;;;;;;1999.90;999.90;;;;;;;20.63;47.57;101703.19;15547553;28;20045;-62
2021/06/04 00:20:01;;;;;;;1999.90;999.90;;;;;;;20.26;48.10;101697.25;15530538;28;20186;-62
2021/06/04 00:27:32;;;;;;;1999.90;999.90;;;;;;;20.26;49.95;101702.09;15547491;28;20042;-62
2021/06/04 00:35:09;;;;;;;1999.90;999.90;;;;;;;20.00;49.57;101695.09;15529678;28;20072;-60
2021/06/04 00:42:43;;;;;;;1999.90;999.90;;;;;;;19.93;49.99;101689.31;15547245;28;20652;-63
2021/06/04 00:50:27;;;;;;;1999.90;999.90;;;;;;;19.68;49.62;101693.63;15549173;28;20383;-62
2021/06/04 00:58:00;;;;;;;1999.90;999.90;;;;;;;20.06;51.16;101704.94;15551331;28;20060;-60
2021/06/04 01:05:37;;;;;;;1999.90;999.90;;;;;;;19.86;50.01;101706.97;15541041;28;20046;-58
2021/06/04 01:13:18;;;;;;;1999.90;999.90;;;;;;;19.79;50.55;101700.31;15558164;28;20387;-59
2021/06/04 01:20:55;;;;;;;1999.90;999.90;;;;;;;19.79;50.82;101711.66;15558241;28;20092;-62
2021/06/04 01:28:35;;;;;;;1999.90;999.90;;;;;;;19.65;50.97;101709.34;15557741;28;20045;-60
2021/06/04 01:36:08;;;;;;;1999.90;999.90;;;;;;;19.54;50.12;101694.94;15539379;28;20046;-60
2021/06/04 01:43:46;;;;;;;1999.90;999.90;;;;;;;19.41;50.17;101704.75;15538175;28;20041;-58
2021/06/04 01:51:23;;;;;;;1999.90;999.90;;;;;;;19.45;50.06;101696.31;15521017;28;20396;-62
2021/06/04 01:59:05;;;;;;;1999.90;999.90;;;;;;;19.37;50.85;101688.84;15520894;28;20141;-60
2021/06/04 02:06:40;;;;;;;1999.90;999.90;;;;;;;19.33;50.56;101711.44;15519638;28;20503;-61
2021/06/04 02:14:17;;;;;;;1999.90;999.90;;;;;;;19.35;51.65;101709.03;15537099;28;20530;-61
2021/06/04 02:21:58;;;;;;;1999.90;999.90;;;;;;;19.15;50.96;101710.19;15536368;28;20116;-60
2021/06/04 02:29:40;;;;;;;1999.90;999.90;;;;;;;19.26;50.64;101694.28;15596626;28;20041;-58
2021/06/04 02:37:17;;;;;;;1999.90;999.90;;;;;;;19.19;50.82;101691.31;15554264;28;20478;-60
2021/06/04 02:44:55;;;;;;;1999.90;999.90;;;;;;;19.32;50.44;101685.13;15518256;28;20049;-61
2021/06/04 02:52:32;;;;;;;1999.90;999.90;;;;;;;19.23;50.71;101680.88;15534027;28;20045;-60
2021/06/04 03:00:12;;;;;;;1999.90;999.90;;;;;;;19.14;50.51;101685.91;15533789;28;20046;-60
2021/06/04 03:07:48;;;;;;;1999.90;999.90;;;;;;;19.11;50.22;101686.66;15524857;28;20470;-60
2021/06/04 03:15:33;;;;;;;1999.90;999.90;;;;;;;19.26;50.20;101689.44;15532315;28;20046;-61
2021/06/04 03:23:11;;;;;;;1999.90;999.90;;;;;;;19.16;50.57;101687.19;15549684;28;20057;-58
2021/06/04 03:30:47;;;;;;;1999.90;999.90;;;;;;;19.34;50.43;101696.09;15532241;28;20124;-62
2021/06/04 03:38:20;;;;;;;1999.90;999.90;;;;;;;19.27;50.36;101693.91;15519116;28;20070;-62
2021/06/04 03:45:57;;;;;;;1999.90;999.90;;;;;;;19.11;52.10;101692.31;15537217;28;20046;-60
2021/06/04 03:53:29;;;;;;;1999.90;999.90;;;;;;;19.12;52.11;101683.44;15536441;28;20117;-61
2021/06/04 04:01:07;;;;;;;1999.90;999.90;;;;;;;19.09;51.77;101686.22;15549405;28;20152;-61
2021/06/04 04:08:38;;;;;;;1999.90;999.90;;;;;;;18.91;52.70;101669.63;15550058;28;20038;-60
2021/06/04 04:16:11;;;;;;;1999.90;999.90;;;;;;;18.94;52.99;101668.06;15551065;28;20069;-61
2021/06/04 04:23:46;;;;;;;1999.90;999.90;;;;;;;18.89;52.39;101659.88;15532772;28;20042;-61
2021/06/04 04:31:22;;;;;;;1999.90;999.90;;;;;;;19.01;52.98;101673.91;15547582;28;20057;-61
2021/06/04 04:38:54;;;;;;;1999.90;999.90;;;;;;;18.86;53.07;101672.75;15554676;28;20495;-58
2021/06/04 04:46:29;;;;;;;1999.90;999.90;;;;;;;19.27;51.94;101682.59;15540607;28;20080;-60
2021/06/04 04:54:16;;;;;;;1999.90;999.90;;;;;;;18.97;52.34;101690.78;15558243;28;20038;-60
2021/06/04 05:01:49;;;;;;;1999.90;999.90;;;;;;;18.82;55.68;101682.31;15557852;28;20050;-59
2021/06/04 05:09:21;;;;;;;1999.90;999.90;;;;;;;18.42;58.49;101678.44;15557110;28;20088;-59
2021/06/04 05:16:54;;;;;;;1999.90;999.90;;;;;;;18.16;60.90;101658.38;15557242;28;20471;-60
2021/06/04 05:24:26;;;;;;;1999.90;999.90;;;;;;;17.84;62.78;101644.19;15539665;28;20064;-61
2021/06/04 05:31:59;;;;;;;1999.90;999.90;;;;;;;17.96;63.60;101651.78;15541257;28;20050;-61
2021/06/04 05:39:31;;;;;;;1999.90;999.90;;;;;;;17.88;61.99;101653.56;15557873;28;20045;-60
2021/06/04 05:47:07;;;;;;;1999.90;999.90;;;;;;;18.11;61.99;101652.97;15557265;28;20042;-62
2021/06/04 05:54:40;;;;;;;1999.90;999.90;;;;;;;18.31;61.77;101668.88;15556966;28;20044;-59
2021/06/04 06:02:13;;;;;;;;;;;;;;;18.36;60.89;101676.25;15556723;28;20133;-57
2021/06/04 06:09:47;;;;;;;1999.90;999.90;;;;;;;18.59;61.73;101677.28;15556266;28;19925;-60
2021/06/04 06:17:20;;;;;;;1999.90;999.90;;;;;;;18.67;59.78;101681.97;15555288;28;20697;-59
2021/06/04 06:24:52;;;;;;;1999.90;999.90;;;;;;;18.98;61.23;101695.25;15537872;28;20034;-61
2021/06/04 06:32:25;;;;;;;1999.90;999.90;;;;;;;19.06;59.93;101689.75;15555366;28;20601;-60
2021/06/04 06:39:56;;;;;;;1999.90;999.90;;;;;;;19.01;61.46;101694.50;15536017;28;20126;-57
2021/06/04 06:47:30;;;;;;;1999.90;999.90;;;;;;;19.16;61.61;101709.00;15553445;28;20052;-55
2021/06/04 06:55:01;;;;;;;1999.90;999.90;;;;;;;19.56;59.20;101718.03;15622065;22;20044;-63
2021/06/04 07:02:34;;;;;;;1999.90;999.90;;;;;;;19.75;58.42;101705.09;15677722;28;20292;-65
2021/06/04 07:10:09;;;;;;;1999.90;999.90;;;;;;;19.68;58.53;101702.94;15648853;28;20437;-64
2021/06/04 07:17:42;;;;;;;1999.90;999.90;;;;;;;20.04;57.60;101701.69;15623999;28;20049;-63
2021/06/04 07:25:16;;;;;;;1999.90;999.90;;;;;;;20.46;55.59;101710.22;15627889;28;20405;-61
2021/06/04 07:32:49;;;;;;;1999.90;999.90;;;;;;;20.52;55.23;101712.72;15622251;28;20413;-62
2021/06/04 07:40:24;;;;;;;1999.90;999.90;;;;;;;20.24;55.42;101710.16;15621541;28;20091;-62
2021/06/04 07:47:57;;;;;;;1999.90;999.90;;;;;;;20.30;56.23;101717.13;15624638;28;20049;-63
2021/06/04 07:55:29;;;;;;;1999.90;999.90;;;;;;;20.04;57.85;101712.19;15621941;28;20403;-64
2021/06/04 08:03:05;;;;;;;1999.90;999.90;;;;;;;20.22;57.14;101721.03;15647236;28;20053;-62
2021/06/04 08:10:38;;;;;;;1999.90;999.90;;;;;;;20.33;58.12;101724.91;15620594;28;20509;-57
2021/06/04 08:18:12;;;;;;;1999.90;999.90;;;;;;;20.05;57.99;101720.31;15592024;28;20259;-57
2021/06/04 08:25:45;;;;;;;1999.90;999.90;;;;;;;20.07;58.87;101723.59;15614205;28;20498;-61
2021/06/04 08:33:25;;;;;;;1999.90;999.90;;;;;;;19.99;62.48;101715.31;15595908;28;20084;-63
2021/06/04 08:41:07;;;;;;;1999.90;999.90;;;;;;;19.39;65.50;101704.31;15590936;28;20099;-60
2021/06/04 08:48:47;;;;;;;1999.90;999.90;;;;;;;19.67;65.09;101708.97;15634293;28;20045;-62
2021/06/04 08:56:23;;;;;;;1999.90;999.90;;;;;;;19.64;64.13;101706.91;15605130;28;20057;-63
2021/06/04 09:04:01;;;;;;;1999.90;999.90;;;;;;;19.62;65.19;101692.28;15602690;28;20030;-62
2021/06/04 09:11:36;;;;;;;1999.90;999.90;;;;;;;19.96;63.41;101718.91;15617039;28;20515;-65
2021/06/04 09:19:20;;;;;;;1999.90;999.90;;;;;;;19.85;65.15;101728.00;15627303;28;20047;-63
2021/06/04 09:26:51;;;;;;;1999.90;999.90;;;;;;;19.98;64.37;101717.31;15625557;28;20045;-63
2021/06/04 09:34:34;;;;;;;1999.90;999.90;;;;;;;20.05;65.00;101708.97;15602766;28;20045;-62
2021/06/04 09:42:19;;;;;;;1999.90;999.90;;;;;;;19.95;64.00;101703.91;15622971;28;20053;-65
2021/06/04 09:49:53;;;;;;;1999.90;999.90;;;;;;;20.04;63.22;101715.03;15621308;28;20041;-64
2021/06/04 09:57:25;;;;;;;1999.90;999.90;;;;;;;20.53;60.79;101742.72;15649333;28;20045;-64
2021/06/04 10:05:12;;;;;;;1999.90;999.90;;;;;;;20.65;63.22;101726.34;15621482;28;20053;-63
2021/06/04 10:12:47;;;;;;;1999.90;999.90;;;;;;;21.18;60.61;101722.78;15619704;28;20091;-62
2021/06/04 10:20:45;;;;;;;1999.90;999.90;;;;;;;21.28;62.29;101714.47;15639989;28;20045;-64
2021/06/04 10:28:37;;;;;;;1999.90;999.90;;;;;;;21.42;61.59;101730.06;15651265;28;20056;-64
2021/06/04 10:36:16;;;;;;;1999.90;999.90;;;;;;;21.56;61.08;101724.56;15672967;28;20041;-63
2021/06/04 10:43:58;;;;;;;1999.90;999.90;;;;;;;21.79;59.19;101733.03;15681375;28;20053;-63
2021/06/04 10:51:43;;;;;;;1999.90;999.90;;;;;;;23.29;56.99;101724.03;15673733;28;20052;-62
2021/06/04 10:59:19;;;;;;;1999.90;999.90;;;;;;;25.70;49.74;101720.09;15610663;28;20541;-63
2021/06/04 11:07:10;;;;;;;1999.90;999.90;;;;;;;26.82;47.39;101716.25;15615614;28;20045;-64
2021/06/04 11:15:11;;;;;;;1999.90;999.90;;;;;;;25.00;50.29;101714.03;15676640;28;20041;-64
2021/06/04 11:23:02;;;;;;;1999.90;999.90;;;;;;;26.12;46.98;101715.44;15555177;28;20405;-64
2021/06/04 11:30:36;;;;;;;1999.90;999.90;;;;;;;25.84;48.19;101716.38;15554232;28;20037;-64
2021/06/04 11:38:25;;;;;;;1999.90;999.90;;;;;;;26.54;47.37;101699.28;15554998;28;20053;-64
2021/06/04 11:46:19;;;;;;;1999.90;999.90;;;;;;;25.57;49.28;101678.91;15554774;28;20096;-65
2021/06/04 11:53:53;;;;;;;1999.90;999.90;;;;;;;25.33;44.76;101675.69;15553343;28;20069;-64
2021/06/04 12:02:01;;;;;;;1999.90;999.90;;;;;;;27.53;41.96;101684.06;15554047;28;20077;-64
2021/06/04 12:09:47;;;;;;;1999.90;999.90;;;;;;;28.15;39.63;101687.81;15552616;28;20189;-64
2021/06/04 12:17:25;;;;;;;1999.90;999.90;;;;;;;28.72;39.29;101679.16;15551249;28;20050;-65
2021/06/04 12:24:58;;;;;;;1999.90;999.90;;;;;;;30.35;35.34;101682.97;15593095;28;20124;-65
2021/06/04 12:33:01;;;;;;;1999.90;999.90;;;;;;;31.84;33.46;101680.28;15576301;28;20072;-63
2021/06/04 12:40:34;;;;;;;1999.90;999.90;;;;;;;32.29;33.32;101667.75;15593059;28;20073;-63
2021/06/04 12:48:12;;;;;;;1999.90;999.90;;;;;;;34.54;30.75;101648.84;15628790;28;20050;-62
2021/06/04 12:55:48;;;;;;;1999.90;999.90;;;;;;;33.26;32.58;101651.72;15627844;22;20049;-63
2021/06/04 13:03:27;;;;;;;1999.90;999.90;;;;;;;33.43;32.20;101653.16;15592171;28;20109;-61
2021/06/04 13:11:01;;;;;;;1999.90;999.90;;;;;;;28.15;39.94;101639.03;15589415;28;20068;-63
2021/06/04 13:18:33;;;;;;;1999.90;999.90;;;;;;;28.36;41.36;101635.88;15608771;28;20096;-62
2021/06/04 13:26:16;;;;;;;1999.90;999.90;;;;;;;28.58;41.13;101644.13;15598348;28;20061;-63
2021/06/04 13:33:53;;;;;;;1999.90;999.90;;;;;;;28.04;42.59;101624.03;15599866;28;20053;-60
2021/06/04 13:41:31;;;;;;;1999.90;999.90;;;;;;;28.32;42.16;101631.41;15597506;28;20496;-62
2021/06/04 13:49:07;;;;;;;1999.90;999.90;;;;;;;27.34;42.45;101630.25;15604908;28;20483;-60
2021/06/04 13:56:42;;;;;;;1999.90;999.90;;;;;;;27.02;43.51;101613.41;15612312;28;20045;-61
2021/06/04 14:04:23;;;;;;;1999.90;999.90;;;;;;;27.02;42.73;101608.50;15612141;28;20156;-60
2021/06/04 14:12:03;;;;;;;1999.90;999.90;;;;;;;26.88;43.27;101608.59;15595155;28;20045;-63
2021/06/04 14:19:47;;;;;;;1999.90;999.90;;;;;;;26.78;43.89;101609.50;15612983;28;20395;-63
2021/06/04 14:27:36;;;;;;;1999.90;999.90;;;;;;;26.96;44.20;101595.03;15615620;28;20050;-62
2021/06/04 14:35:26;;;;;;;1999.90;999.90;;;;;;;26.08;46.39;101583.91;15614671;28;20355;-62
2021/06/04 14:43:01;;;;;;;1999.90;999.90;;;;;;;25.96;47.73;101586.47;15613503;28;20041;-62
2021/06/04 14:50:34;;;;;;;1999.90;999.90;;;;;;;26.16;47.65;101579.78;15612141;28;20048;-62
2021/06/04 14:58:08;;;;;;;1999.90;999.90;;;;;;;25.88;47.17;101577.09;15609998;28;20042;-61
2021/06/04 15:05:41;;;;;;;1999.90;999.90;;;;;;;25.78;47.46;101570.22;15612228;28;20072;-62
2021/06/04 15:13:18;;;;;;;;;;;;;;;25.66;48.92;101567.81;15611138;28;20379;-61
2021/06/04 15:20:50;;;;;;;1999.90;999.90;;;;;;;25.76;49.04;101569.81;15609824;28;19970;-62
2021/06/04 15:28:28;;;;;;;1999.90;999.90;;;;;;;25.94;48.37;101563.97;15611711;28;20122;-60
2021/06/04 15:36:01;;;;;;;1999.90;999.90;;;;;;;25.37;49.05;101554.88;15611404;28;20102;-62
2021/06/04 15:43:38;;;;;;;1999.90;999.90;;;;;;;25.51;48.75;101560.53;15609894;28;20042;-59
2021/06/04 15:51:11;;;;;;;1999.90;999.90;;;;;;;25.42;49.55;101558.09;15611220;28;20557;-63
2021/06/04 15:58:45;;;;;;;1999.90;999.90;;;;;;;25.27;50.11;101554.50;15599696;28;20037;-63
2021/06/04 16:06:22;;;;;;;1999.90;999.90;;;;;;;25.13;50.24;101553.78;15610161;28;20041;-63
2021/06/04 16:13:55;;;;;;;1999.90;999.90;;;;;;;25.09;50.51;101548.03;15600046;28;20099;-63
2021/06/04 16:21:27;;;;;;;1999.90;999.90;;;;;;;25.44;49.64;101554.88;15610053;28;20406;-60
2021/06/04 16:29:02;;;;;;;1999.90;999.90;;;;;;;25.60;49.97;101538.84;15610772;28;20100;-63
2021/06/04 16:36:34;;;;;;;1999.90;999.90;;;;;;;25.35;50.60;101545.94;15622466;28;20046;-64
2021/06/04 16:44:07;;;;;;;1999.90;999.90;;;;;;;25.18;50.38;101536.19;15621376;28;20493;-61
2021/06/04 16:51:38;;;;;;;1999.90;999.90;;;;;;;25.15;51.68;101540.69;15605807;28;20072;-63
2021/06/04 16:59:12;;;;;;;1999.90;999.90;;;;;;;25.22;51.01;101546.38;15622866;28;20133;-64
2021/06/04 17:06:44;;;;;;;1999.90;999.90;;;;;;;25.18;51.73;101553.31;15586836;28;20042;-65
2021/06/04 17:14:17;;;;;;;1999.90;999.90;;;;;;;24.98;51.76;101555.81;15592222;28;20037;-64
2021/06/04 17:21:49;;;;;;;1999.90;999.90;;;;;;;24.90;52.03;101552.16;15605935;28;20490;-62
2021/06/04 17:29:21;;;;;;;1999.90;999.90;;;;;;;25.03;52.10;101552.56;15607532;28;20460;-62
2021/06/04 17:36:53;;;;;;;1999.90;999.90;;;;;;;24.94;51.84;101552.97;15619899;28;20124;-62
2021/06/04 17:44:26;;;;;;;1999.90;999.90;;;;;;;24.67;52.81;101549.75;15618453;28;20121;-62
2021/06/04 17:51:58;;;;;;;1999.90;999.90;;;;;;;24.73;53.59;101561.59;15617584;28;20037;-61
2021/06/04 17:59:31;;;;;;;1999.90;999.90;;;;;;;24.48;53.73;101556.69;15568500;28;20041;-63
2021/06/04 18:07:03;;;;;;;1999.90;999.90;;;;;;;24.48;53.65;101564.44;15555812;28;20042;-63
2021/06/04 18:14:36;;;;;;;1999.90;999.90;;;;;;;24.35;54.20;101557.53;15598766;28;20463;-66
2021/06/04 18:22:11;;;;;;;1999.90;999.90;;;;;;;24.22;55.09;101561.97;15598038;28;20049;-66
2021/06/04 18:29:43;;;;;;;1999.90;999.90;;;;;;;23.97;55.58;101545.69;15615291;28;20041;-66
2021/06/04 18:37:15;;;;;;;1999.90;999.90;;;;;;;23.77;56.07;101548.09;15614788;28;20490;-67
2021/06/04 18:44:48;;;;;;;1999.90;999.90;;;;;;;23.56;56.45;101553.69;15612126;28;20053;-61
2021/06/04 18:52:20;;;;;;;1999.90;999.90;;;;;;;23.35;56.97;101562.97;15591338;22;20340;-62
2021/06/04 18:59:53;;;;;;;1999.90;999.90;;;;;;;23.25;56.89;101564.56;15559529;28;20065;-62
2021/06/04 19:07:24;;;;;;;1999.90;999.90;;;;;;;23.00;57.42;101578.66;15551356;28;20041;-61
2021/06/04 19:14:57;;;;;;;1999.90;999.90;;;;;;;22.86;57.45;101574.91;15553109;28;20494;-59
2021/06/04 19:22:29;;;;;;;1999.90;999.90;;;;;;;22.70;57.53;101573.16;15551638;28;20148;-58
2021/06/04 19:30:07;;;;;;;1999.90;999.90;;;;;;;22.56;58.15;101577.94;15550790;28;20073;-61
2021/06/04 19:37:39;;;;;;;1999.90;999.90;;;;;;;22.26;58.07;101584.56;15534244;28;20104;-61
2021/06/04 19:45:14;;;;;;;1999.90;999.90;;;;;;;22.30;57.56;101588.28;15557645;28;20065;-62
2021/06/04 19:52:45;;;;;;;1999.90;999.90;;;;;;;21.97;58.39;101589.13;15557801;28;20461;-56
2021/06/04 20:00:21;;;;;;;1999.90;999.90;;;;;;;21.87;58.89;101596.34;15555603;28;20462;-62
2021/06/04 20:07:53;;;;;;;1999.90;999.90;;;;;;;21.65;59.37;101587.97;15538302;28;20037;-61
2021/06/04 20:15:26;;;;;;;1999.90;999.90;;;;;;;21.51;60.41;101582.94;15537558;28;20042;-59
2021/06/04 20:23:00;;;;;;;;;;;;;;;21.29;61.13;101591.19;15538652;28;20499;-61
2021/06/04 20:30:33;;;;;;;1999.90;999.90;;;;;;;21.05;62.51;101583.13;15542670;28;20001;-61
2021/06/04 20:38:07;;;;;;;1999.90;999.90;;;;;;;20.87;62.79;101597.06;15540586;28;20046;-58
2021/06/04 20:45:40;;;;;;;;;;;;;;;20.81;62.85;101601.41;15550272;28;20052;-61
2021/06/04 20:53:16;;;;;;;1999.90;999.90;;;;;;;20.57;63.68;101597.00;15547705;28;19921;-61
2021/06/04 21:00:50;;;;;;;1999.90;999.90;;;;;;;20.31;64.26;101594.88;15563506;28;20077;-59
2021/06/04 21:08:23;;;;;;;1999.90;999.90;;;;;;;20.19;64.36;101595.91;15544548;28;20073;-59
2021/06/04 21:15:56;;;;;;;1999.90;999.90;;;;;;;20.17;64.50;101603.97;15547599;28;20041;-60
2021/06/04 21:23:31;;;;;;;1999.90;999.90;;;;;;;19.91;65.27;101580.44;15556385;28;20049;-62
2021/06/04 21:31:05;;;;;;;1999.90;999.90;;;;;;;20.02;65.36;101584.28;15556211;28;20116;-60
2021/06/04 21:38:37;;;;;;;1999.90;999.90;;;;;;;19.78;65.43;101577.75;15558016;28;20099;-60
2021/06/04 21:46:13;;;;;;;1999.90;999.90;;;;;;;19.71;65.79;101580.47;15575831;28;20049;-62
2021/06/04 21:53:49;;;;;;;1999.90;999.90;;;;;;;19.50;66.41;101569.50;15555132;28;20087;-61
2021/06/04 22:01:24;;;;;;;1999.90;999.90;;;;;;;19.71;65.92;101571.16;15569245;28;20057;-62
2021/06/04 22:08:57;;;;;;;1999.90;999.90;;;;;;;19.44;66.28;101573.00;15554059;28;20115;-63
2021/06/04 22:16:30;;;;;;;1999.90;999.90;;;;;;;19.60;66.26;101580.25;15563483;28;20116;-62
2021/06/04 22:24:06;;;;;;;1999.90;999.90;;;;;;;19.53;66.48;101582.06;15585488;28;20176;-61
2021/06/04 22:31:41;;;;;;;1999.90;999.90;;;;;;;19.56;66.44;101564.38;15553256;28;20041;-61
2021/06/04 22:39:16;;;;;;;1999.90;999.90;;;;;;;19.06;68.20;101566.13;15550464;28;20049;-61
2021/06/04 22:46:49;;;;;;;1999.90;999.90;;;;;;;19.06;67.77;101576.59;15550260;28;20073;-62
2021/06/04 22:54:20;;;;;;;1999.90;999.90;;;;;;;19.06;67.55;101574.59;15552054;28;20046;-61
2021/06/04 23:01:53;;;;;;;1999.90;999.90;;;;;;;18.77;67.91;101572.34;15548724;28;20375;-62
2021/06/04 23:09:25;;;;;;;1999.90;999.90;;;;;;;18.49;68.44;101561.13;15544408;28;20065;-63
2021/06/04 23:16:58;;;;;;;1999.90;999.90;;;;;;;18.38;68.88;101555.22;15546790;28;20422;-63
2021/06/04 23:24:29;;;;;;;1999.90;999.90;;;;;;;18.43;68.93;101560.56;15549202;28;20478;-63
2021/06/04 23:32:03;;;;;;;1999.90;999.90;;;;;;;18.42;69.05;101556.13;15550177;28;20486;-62
2021/06/04 23:39:34;;;;;;;1999.90;999.90;;;;;;;18.14;69.86;101557.06;15549346;28;20125;-62
2021/06/04 23:47:08;;;;;;;1999.90;999.90;;;;;;;18.21;69.54;101550.75;15548933;28;20050;-62
2021/06/04 23:54:39;;;;;;;1999.90;999.90;;;;;;;18.01;70.00;101541.38;15548215;28;20042;-62
